sensor_id;sensor_type;location;lat;lon;timestamp;P1;durP1;ratioP1;P2;durP2;ratioP2
39190;SDS011;24916;51.676;6.614;2023-09-12T00:01:46;25.23;;;20.52;;
39190;SDS011;24916;51.676;6.614;2023-09-12T00:04:11;26.70;;;21.03;;
39190;SDS011;24916;51.676;6.614;2023-09-12T00:06:36;26.07;;;20.73;;
39190;SDS011;24916;51.676;6.614;2023-09-12T00:09:01;24.15;;;19.63;;
39190;SDS011;24916;51.676;6.614;2023-09-12T00:11:30;22.33;;;19.00;;
39190;SDS011;24916;51.676;6.614;2023-09-12T00:13:55;14.03;;;11.73;;
39190;SDS011;24916;51.676;6.614;2023-09-12T00:16:20;21.27;;;19.10;;
39190;SDS011;24916;51.676;6.614;2023-09-12T00:18:46;23.92;;;19.65;;
39190;SDS011;24916;51.676;6.614;2023-09-12T00:21:11;27.93;;;19.17;;
39190;SDS011;24916;51.676;6.614;2023-09-12T00:23:36;27.57;;;20.07;;
39190;SDS011;24916;51.676;6.614;2023-09-12T00:26:01;18.93;;;15.40;;
39190;SDS011;24916;51.676;6.614;2023-09-12T00:28:26;24.10;;;17.13;;
39190;SDS011;24916;51.676;6.614;2023-09-12T00:30:52;14.23;;;10.73;;
39190;SDS011;24916;51.676;6.614;2023-09-12T00:33:17;15.63;;;14.02;;
39190;SDS011;24916;51.676;6.614;2023-09-12T00:35:43;15.48;;;12.55;;
39190;SDS011;24916;51.676;6.614;2023-09-12T00:38:08;13.70;;;12.18;;
39190;SDS011;24916;51.676;6.614;2023-09-12T00:40:34;13.82;;;12.25;;
39190;SDS011;24916;51.676;6.614;2023-09-12T00:42:59;18.30;;;12.90;;
39190;SDS011;24916;51.676;6.614;2023-09-12T00:45:24;19.38;;;13.27;;
39190;SDS011;24916;51.676;6.614;2023-09-12T00:47:50;15.60;;;12.93;;
39190;SDS011;24916;51.676;6.614;2023-09-12T00:50:16;11.43;;;10.07;;
39190;SDS011;24916;51.676;6.614;2023-09-12T00:52:41;15.90;;;12.95;;
39190;SDS011;24916;51.676;6.614;2023-09-12T00:55:07;14.48;;;13.00;;
39190;SDS011;24916;51.676;6.614;2023-09-12T00:57:33;16.85;;;12.07;;
39190;SDS011;24916;51.676;6.614;2023-09-12T00:59:59;15.10;;;11.35;;
39190;SDS011;24916;51.676;6.614;2023-09-12T01:02:24;11.18;;;8.70;;
39190;SDS011;24916;51.676;6.614;2023-09-12T01:04:50;14.82;;;11.30;;
39190;SDS011;24916;51.676;6.614;2023-09-12T01:07:15;14.65;;;11.45;;
39190;SDS011;24916;51.676;6.614;2023-09-12T01:09:40;12.15;;;6.88;;
39190;SDS011;24916;51.676;6.614;2023-09-12T01:12:06;16.65;;;11.65;;
39190;SDS011;24916;51.676;6.614;2023-09-12T01:14:31;14.15;;;11.23;;
39190;SDS011;24916;51.676;6.614;2023-09-12T01:16:57;18.13;;;11.05;;
39190;SDS011;24916;51.676;6.614;2023-09-12T01:19:22;11.45;;;7.75;;
39190;SDS011;24916;51.676;6.614;2023-09-12T01:29:43;17.90;;;13.13;;
39190;SDS011;24916;51.676;6.614;2023-09-12T01:32:09;17.80;;;13.85;;
39190;SDS011;24916;51.676;6.614;2023-09-12T01:34:35;14.40;;;10.43;;
39190;SDS011;24916;51.676;6.614;2023-09-12T01:37:00;12.43;;;9.40;;
39190;SDS011;24916;51.676;6.614;2023-09-12T01:39:25;14.07;;;12.48;;
39190;SDS011;24916;51.676;6.614;2023-09-12T01:41:50;15.30;;;11.83;;
39190;SDS011;24916;51.676;6.614;2023-09-12T01:44:17;16.88;;;12.48;;
39190;SDS011;24916;51.676;6.614;2023-09-12T01:46:43;17.52;;;13.57;;
39190;SDS011;24916;51.676;6.614;2023-09-12T01:49:08;13.00;;;7.70;;
39190;SDS011;24916;51.676;6.614;2023-09-12T01:51:34;17.55;;;14.00;;
39190;SDS011;24916;51.676;6.614;2023-09-12T01:54:00;19.27;;;15.02;;
39190;SDS011;24916;51.676;6.614;2023-09-12T01:56:25;18.75;;;13.75;;
39190;SDS011;24916;51.676;6.614;2023-09-12T01:58:51;18.63;;;15.23;;
39190;SDS011;24916;51.676;6.614;2023-09-12T02:01:16;20.25;;;15.63;;
39190;SDS011;24916;51.676;6.614;2023-09-12T02:03:41;10.23;;;8.00;;
39190;SDS011;24916;51.676;6.614;2023-09-12T02:06:06;16.93;;;14.07;;
39190;SDS011;24916;51.676;6.614;2023-09-12T02:08:32;16.38;;;14.63;;
39190;SDS011;24916;51.676;6.614;2023-09-12T02:10:57;18.27;;;14.75;;
39190;SDS011;24916;51.676;6.614;2023-09-12T02:13:22;17.05;;;14.32;;
39190;SDS011;24916;51.676;6.614;2023-09-12T02:15:47;20.30;;;12.35;;
39190;SDS011;24916;51.676;6.614;2023-09-12T02:18:12;16.05;;;13.45;;
39190;SDS011;24916;51.676;6.614;2023-09-12T02:20:38;15.98;;;13.00;;
39190;SDS011;24916;51.676;6.614;2023-09-12T02:23:04;24.80;;;16.42;;
39190;SDS011;24916;51.676;6.614;2023-09-12T02:25:29;20.43;;;16.00;;
39190;SDS011;24916;51.676;6.614;2023-09-12T02:27:54;18.13;;;16.27;;
39190;SDS011;24916;51.676;6.614;2023-09-12T02:30:19;17.53;;;12.83;;
39190;SDS011;24916;51.676;6.614;2023-09-12T02:32:45;13.60;;;11.35;;
39190;SDS011;24916;51.676;6.614;2023-09-12T02:35:10;24.48;;;17.23;;
39190;SDS011;24916;51.676;6.614;2023-09-12T02:37:35;21.33;;;15.65;;
39190;SDS011;24916;51.676;6.614;2023-09-12T02:40:01;25.92;;;15.48;;
39190;SDS011;24916;51.676;6.614;2023-09-12T02:42:26;16.90;;;15.10;;
39190;SDS011;24916;51.676;6.614;2023-09-12T02:44:51;18.53;;;16.33;;
39190;SDS011;24916;51.676;6.614;2023-09-12T02:47:17;22.13;;;14.80;;
39190;SDS011;24916;51.676;6.614;2023-09-12T02:49:42;26.42;;;18.10;;
39190;SDS011;24916;51.676;6.614;2023-09-12T02:52:07;22.93;;;17.97;;
39190;SDS011;24916;51.676;6.614;2023-09-12T02:54:33;19.33;;;16.45;;
39190;SDS011;24916;51.676;6.614;2023-09-12T02:56:58;23.10;;;17.87;;
39190;SDS011;24916;51.676;6.614;2023-09-12T02:59:23;19.52;;;12.00;;
39190;SDS011;24916;51.676;6.614;2023-09-12T03:01:48;23.93;;;13.50;;
39190;SDS011;24916;51.676;6.614;2023-09-12T03:04:14;17.93;;;14.47;;
39190;SDS011;24916;51.676;6.614;2023-09-12T03:06:39;20.88;;;17.17;;
39190;SDS011;24916;51.676;6.614;2023-09-12T03:09:04;15.25;;;9.68;;
39190;SDS011;24916;51.676;6.614;2023-09-12T03:11:29;16.40;;;13.73;;
39190;SDS011;24916;51.676;6.614;2023-09-12T03:13:54;23.95;;;16.42;;
39190;SDS011;24916;51.676;6.614;2023-09-12T03:16:20;24.33;;;18.40;;
39190;SDS011;24916;51.676;6.614;2023-09-12T03:18:45;18.75;;;13.50;;
39190;SDS011;24916;51.676;6.614;2023-09-12T03:21:10;22.27;;;17.77;;
39190;SDS011;24916;51.676;6.614;2023-09-12T03:23:35;24.27;;;18.30;;
39190;SDS011;24916;51.676;6.614;2023-09-12T03:26:04;22.87;;;17.93;;
39190;SDS011;24916;51.676;6.614;2023-09-12T03:28:29;26.95;;;18.42;;
39190;SDS011;24916;51.676;6.614;2023-09-12T03:31:08;11.35;;;10.13;;
39190;SDS011;24916;51.676;6.614;2023-09-12T03:33:33;28.15;;;14.40;;
39190;SDS011;24916;51.676;6.614;2023-09-12T03:35:58;22.13;;;17.23;;
39190;SDS011;24916;51.676;6.614;2023-09-12T03:38:24;17.27;;;14.32;;
39190;SDS011;24916;51.676;6.614;2023-09-12T03:40:49;26.52;;;17.80;;
39190;SDS011;24916;51.676;6.614;2023-09-12T03:43:14;23.37;;;17.27;;
39190;SDS011;24916;51.676;6.614;2023-09-12T03:45:39;22.38;;;17.52;;
39190;SDS011;24916;51.676;6.614;2023-09-12T03:48:04;17.38;;;14.57;;
39190;SDS011;24916;51.676;6.614;2023-09-12T03:50:30;25.00;;;18.77;;
39190;SDS011;24916;51.676;6.614;2023-09-12T03:52:55;24.08;;;16.40;;
39190;SDS011;24916;51.676;6.614;2023-09-12T03:55:20;20.17;;;16.05;;
39190;SDS011;24916;51.676;6.614;2023-09-12T03:57:45;24.45;;;16.38;;
39190;SDS011;24916;51.676;6.614;2023-09-12T04:00:11;22.85;;;17.35;;
39190;SDS011;24916;51.676;6.614;2023-09-12T04:02:36;23.52;;;15.48;;
39190;SDS011;24916;51.676;6.614;2023-09-12T04:05:01;25.42;;;19.80;;
39190;SDS011;24916;51.676;6.614;2023-09-12T04:07:27;21.67;;;11.48;;
39190;SDS011;24916;51.676;6.614;2023-09-12T04:09:52;23.23;;;19.20;;
39190;SDS011;24916;51.676;6.614;2023-09-12T04:12:17;25.10;;;19.70;;
39190;SDS011;24916;51.676;6.614;2023-09-12T04:14:43;21.33;;;14.80;;
39190;SDS011;24916;51.676;6.614;2023-09-12T04:17:08;20.77;;;15.98;;
39190;SDS011;24916;51.676;6.614;2023-09-12T04:19:33;18.70;;;14.35;;
39190;SDS011;24916;51.676;6.614;2023-09-12T04:21:58;16.50;;;13.98;;
39190;SDS011;24916;51.676;6.614;2023-09-12T04:24:24;28.92;;;16.85;;
39190;SDS011;24916;51.676;6.614;2023-09-12T04:26:50;20.13;;;15.48;;
39190;SDS011;24916;51.676;6.614;2023-09-12T04:29:15;21.77;;;16.30;;
39190;SDS011;24916;51.676;6.614;2023-09-12T04:31:40;23.33;;;18.33;;
39190;SDS011;24916;51.676;6.614;2023-09-12T04:34:05;20.05;;;13.48;;
39190;SDS011;24916;51.676;6.614;2023-09-12T04:36:31;21.80;;;17.15;;
39190;SDS011;24916;51.676;6.614;2023-09-12T04:38:56;15.38;;;12.32;;
39190;SDS011;24916;51.676;6.614;2023-09-12T04:41:21;21.63;;;18.25;;
39190;SDS011;24916;51.676;6.614;2023-09-12T04:43:46;23.83;;;17.55;;
39190;SDS011;24916;51.676;6.614;2023-09-12T04:46:12;20.08;;;16.17;;
39190;SDS011;24916;51.676;6.614;2023-09-12T04:48:37;24.77;;;20.65;;
39190;SDS011;24916;51.676;6.614;2023-09-12T04:51:02;19.17;;;15.27;;
39190;SDS011;24916;51.676;6.614;2023-09-12T04:53:27;21.38;;;19.00;;
39190;SDS011;24916;51.676;6.614;2023-09-12T04:55:59;22.58;;;17.17;;
39190;SDS011;24916;51.676;6.614;2023-09-12T04:58:24;25.15;;;18.15;;
39190;SDS011;24916;51.676;6.614;2023-09-12T05:00:49;22.17;;;19.60;;
39190;SDS011;24916;51.676;6.614;2023-09-12T05:03:14;23.63;;;15.37;;
39190;SDS011;24916;51.676;6.614;2023-09-12T05:05:39;18.70;;;15.17;;
39190;SDS011;24916;51.676;6.614;2023-09-12T05:08:05;15.23;;;11.40;;
39190;SDS011;24916;51.676;6.614;2023-09-12T05:10:30;25.90;;;17.75;;
39190;SDS011;24916;51.676;6.614;2023-09-12T05:12:56;17.63;;;14.00;;
39190;SDS011;24916;51.676;6.614;2023-09-12T05:15:21;30.38;;;21.92;;
39190;SDS011;24916;51.676;6.614;2023-09-12T05:17:46;28.05;;;19.52;;
39190;SDS011;24916;51.676;6.614;2023-09-12T05:20:11;31.05;;;22.20;;
39190;SDS011;24916;51.676;6.614;2023-09-12T05:22:36;24.23;;;18.88;;
39190;SDS011;24916;51.676;6.614;2023-09-12T05:25:02;19.23;;;15.80;;
39190;SDS011;24916;51.676;6.614;2023-09-12T05:27:27;19.20;;;13.77;;
39190;SDS011;24916;51.676;6.614;2023-09-12T05:29:52;34.50;;;24.40;;
39190;SDS011;24916;51.676;6.614;2023-09-12T05:32:17;26.40;;;19.45;;
39190;SDS011;24916;51.676;6.614;2023-09-12T05:34:43;31.50;;;23.13;;
39190;SDS011;24916;51.676;6.614;2023-09-12T05:37:08;29.65;;;19.23;;
39190;SDS011;24916;51.676;6.614;2023-09-12T05:39:33;33.53;;;25.90;;
39190;SDS011;24916;51.676;6.614;2023-09-12T05:41:58;26.92;;;18.77;;
39190;SDS011;24916;51.676;6.614;2023-09-12T05:44:23;35.00;;;24.40;;
39190;SDS011;24916;51.676;6.614;2023-09-12T05:46:49;30.27;;;20.67;;
39190;SDS011;24916;51.676;6.614;2023-09-12T05:49:14;27.77;;;23.55;;
39190;SDS011;24916;51.676;6.614;2023-09-12T05:51:40;33.55;;;23.75;;
39190;SDS011;24916;51.676;6.614;2023-09-12T05:54:05;25.75;;;16.45;;
39190;SDS011;24916;51.676;6.614;2023-09-12T05:56:30;33.42;;;25.02;;
39190;SDS011;24916;51.676;6.614;2023-09-12T05:58:56;29.10;;;22.95;;
39190;SDS011;24916;51.676;6.614;2023-09-12T06:01:21;32.08;;;25.05;;
39190;SDS011;24916;51.676;6.614;2023-09-12T06:03:46;18.60;;;14.20;;
39190;SDS011;24916;51.676;6.614;2023-09-12T06:06:11;42.10;;;33.38;;
39190;SDS011;24916;51.676;6.614;2023-09-12T06:08:37;32.85;;;27.55;;
39190;SDS011;24916;51.676;6.614;2023-09-12T06:11:02;30.83;;;22.77;;
39190;SDS011;24916;51.676;6.614;2023-09-12T06:13:27;23.23;;;18.38;;
39190;SDS011;24916;51.676;6.614;2023-09-12T06:15:52;30.45;;;24.63;;
39190;SDS011;24916;51.676;6.614;2023-09-12T06:18:18;37.03;;;25.73;;
39190;SDS011;24916;51.676;6.614;2023-09-12T06:20:44;28.70;;;23.27;;
39190;SDS011;24916;51.676;6.614;2023-09-12T06:23:10;31.65;;;24.77;;
39190;SDS011;24916;51.676;6.614;2023-09-12T06:25:35;31.73;;;24.95;;
39190;SDS011;24916;51.676;6.614;2023-09-12T06:28:00;23.60;;;18.20;;
39190;SDS011;24916;51.676;6.614;2023-09-12T06:30:26;34.60;;;25.55;;
39190;SDS011;24916;51.676;6.614;2023-09-12T06:32:51;27.23;;;20.27;;
39190;SDS011;24916;51.676;6.614;2023-09-12T06:35:16;31.98;;;25.02;;
39190;SDS011;24916;51.676;6.614;2023-09-12T06:37:41;26.98;;;19.73;;
39190;SDS011;24916;51.676;6.614;2023-09-12T06:40:07;34.60;;;27.10;;
39190;SDS011;24916;51.676;6.614;2023-09-12T06:42:32;24.95;;;18.00;;
39190;SDS011;24916;51.676;6.614;2023-09-12T06:44:58;32.03;;;24.08;;
39190;SDS011;24916;51.676;6.614;2023-09-12T06:47:23;22.02;;;14.73;;
39190;SDS011;24916;51.676;6.614;2023-09-12T06:49:48;35.20;;;26.17;;
39190;SDS011;24916;51.676;6.614;2023-09-12T06:52:13;37.47;;;25.13;;
39190;SDS011;24916;51.676;6.614;2023-09-12T06:54:38;29.37;;;21.90;;
39190;SDS011;24916;51.676;6.614;2023-09-12T06:57:04;33.08;;;23.70;;
39190;SDS011;24916;51.676;6.614;2023-09-12T06:59:29;33.25;;;24.63;;
39190;SDS011;24916;51.676;6.614;2023-09-12T07:01:54;36.55;;;27.10;;
39190;SDS011;24916;51.676;6.614;2023-09-12T07:04:20;30.52;;;21.33;;
39190;SDS011;24916;51.676;6.614;2023-09-12T07:06:45;37.97;;;27.55;;
39190;SDS011;24916;51.676;6.614;2023-09-12T07:09:10;41.65;;;27.48;;
39190;SDS011;24916;51.676;6.614;2023-09-12T07:11:39;32.58;;;19.27;;
39190;SDS011;24916;51.676;6.614;2023-09-12T07:14:04;35.78;;;27.40;;
39190;SDS011;24916;51.676;6.614;2023-09-12T07:16:30;30.08;;;20.30;;
39190;SDS011;24916;51.676;6.614;2023-09-12T07:18:55;27.73;;;21.60;;
39190;SDS011;24916;51.676;6.614;2023-09-12T07:21:22;36.80;;;26.75;;
39190;SDS011;24916;51.676;6.614;2023-09-12T07:23:47;23.10;;;16.38;;
39190;SDS011;24916;51.676;6.614;2023-09-12T07:26:13;37.20;;;26.90;;
39190;SDS011;24916;51.676;6.614;2023-09-12T07:28:38;42.03;;;28.52;;
39190;SDS011;24916;51.676;6.614;2023-09-12T07:31:04;19.65;;;15.50;;
39190;SDS011;24916;51.676;6.614;2023-09-12T07:33:29;36.23;;;27.43;;
39190;SDS011;24916;51.676;6.614;2023-09-12T07:35:54;40.80;;;26.58;;
39190;SDS011;24916;51.676;6.614;2023-09-12T07:38:20;26.38;;;20.25;;
39190;SDS011;24916;51.676;6.614;2023-09-12T07:40:45;37.17;;;26.67;;
39190;SDS011;24916;51.676;6.614;2023-09-12T07:43:10;18.95;;;12.85;;
39190;SDS011;24916;51.676;6.614;2023-09-12T07:45:36;32.00;;;26.23;;
39190;SDS011;24916;51.676;6.614;2023-09-12T07:48:08;33.72;;;24.33;;
39190;SDS011;24916;51.676;6.614;2023-09-12T07:50:35;46.55;;;34.08;;
39190;SDS011;24916;51.676;6.614;2023-09-12T07:53:00;30.70;;;24.75;;
39190;SDS011;24916;51.676;6.614;2023-09-12T07:55:25;36.28;;;24.38;;
39190;SDS011;24916;51.676;6.614;2023-09-12T07:57:51;28.27;;;19.23;;
39190;SDS011;24916;51.676;6.614;2023-09-12T08:00:16;30.70;;;24.27;;
39190;SDS011;24916;51.676;6.614;2023-09-12T08:02:42;29.67;;;24.08;;
39190;SDS011;24916;51.676;6.614;2023-09-12T08:05:07;30.75;;;21.75;;
39190;SDS011;24916;51.676;6.614;2023-09-12T08:07:33;28.17;;;22.45;;
39190;SDS011;24916;51.676;6.614;2023-09-12T08:09:58;22.58;;;18.90;;
39190;SDS011;24916;51.676;6.614;2023-09-12T08:12:24;23.88;;;18.88;;
39190;SDS011;24916;51.676;6.614;2023-09-12T08:14:49;21.83;;;19.52;;
39190;SDS011;24916;51.676;6.614;2023-09-12T08:17:15;15.73;;;10.75;;
39190;SDS011;24916;51.676;6.614;2023-09-12T08:19:40;20.13;;;18.00;;
39190;SDS011;24916;51.676;6.614;2023-09-12T08:22:06;19.50;;;16.85;;
39190;SDS011;24916;51.676;6.614;2023-09-12T08:24:32;22.30;;;16.90;;
39190;SDS011;24916;51.676;6.614;2023-09-12T08:26:58;21.98;;;16.05;;
39190;SDS011;24916;51.676;6.614;2023-09-12T08:29:23;20.45;;;16.17;;
39190;SDS011;24916;51.676;6.614;2023-09-12T08:31:49;19.50;;;16.95;;
39190;SDS011;24916;51.676;6.614;2023-09-12T08:34:14;18.90;;;16.85;;
39190;SDS011;24916;51.676;6.614;2023-09-12T08:36:40;17.93;;;16.03;;
39190;SDS011;24916;51.676;6.614;2023-09-12T08:39:05;11.33;;;10.13;;
39190;SDS011;24916;51.676;6.614;2023-09-12T08:41:33;20.65;;;17.33;;
39190;SDS011;24916;51.676;6.614;2023-09-12T08:43:58;26.52;;;17.05;;
39190;SDS011;24916;51.676;6.614;2023-09-12T08:46:25;14.48;;;10.23;;
39190;SDS011;24916;51.676;6.614;2023-09-12T08:48:50;16.70;;;12.98;;
39190;SDS011;24916;51.676;6.614;2023-09-12T08:51:16;18.10;;;13.32;;
39190;SDS011;24916;51.676;6.614;2023-09-12T08:53:41;14.97;;;12.80;;
39190;SDS011;24916;51.676;6.614;2023-09-12T08:56:06;15.52;;;13.65;;
39190;SDS011;24916;51.676;6.614;2023-09-12T08:58:32;16.08;;;13.52;;
39190;SDS011;24916;51.676;6.614;2023-09-12T09:00:58;18.48;;;13.90;;
39190;SDS011;24916;51.676;6.614;2023-09-12T09:03:24;15.30;;;13.50;;
39190;SDS011;24916;51.676;6.614;2023-09-12T09:05:49;15.07;;;13.45;;
39190;SDS011;24916;51.676;6.614;2023-09-12T09:08:15;16.25;;;13.43;;
39190;SDS011;24916;51.676;6.614;2023-09-12T09:10:54;13.70;;;12.00;;
39190;SDS011;24916;51.676;6.614;2023-09-12T09:13:19;16.75;;;15.10;;
39190;SDS011;24916;51.676;6.614;2023-09-12T09:15:44;15.18;;;13.40;;
39190;SDS011;24916;51.676;6.614;2023-09-12T09:18:09;16.63;;;14.93;;
39190;SDS011;24916;51.676;6.614;2023-09-12T09:20:37;17.75;;;14.88;;
39190;SDS011;24916;51.676;6.614;2023-09-12T09:23:05;15.20;;;13.65;;
39190;SDS011;24916;51.676;6.614;2023-09-12T09:25:32;15.93;;;13.10;;
39190;SDS011;24916;51.676;6.614;2023-09-12T09:27:58;16.27;;;13.85;;
39190;SDS011;24916;51.676;6.614;2023-09-12T09:30:39;18.60;;;15.13;;
39190;SDS011;24916;51.676;6.614;2023-09-12T09:33:04;17.08;;;14.02;;
39190;SDS011;24916;51.676;6.614;2023-09-12T09:35:29;19.33;;;15.95;;
39190;SDS011;24916;51.676;6.614;2023-09-12T09:37:55;15.82;;;14.35;;
39190;SDS011;24916;51.676;6.614;2023-09-12T09:40:21;17.33;;;14.73;;
39190;SDS011;24916;51.676;6.614;2023-09-12T09:42:47;15.75;;;13.90;;
39190;SDS011;24916;51.676;6.614;2023-09-12T09:45:12;22.47;;;14.53;;
39190;SDS011;24916;51.676;6.614;2023-09-12T09:47:37;16.25;;;12.85;;
39190;SDS011;24916;51.676;6.614;2023-09-12T09:50:02;14.65;;;13.05;;
39190;SDS011;24916;51.676;6.614;2023-09-12T09:52:28;15.20;;;13.02;;
39190;SDS011;24916;51.676;6.614;2023-09-12T09:54:53;15.68;;;12.85;;
39190;SDS011;24916;51.676;6.614;2023-09-12T09:57:18;16.20;;;13.27;;
39190;SDS011;24916;51.676;6.614;2023-09-12T09:59:48;18.52;;;12.23;;
39190;SDS011;24916;51.676;6.614;2023-09-12T10:02:15;16.42;;;11.65;;
39190;SDS011;24916;51.676;6.614;2023-09-12T10:04:42;13.35;;;10.90;;
39190;SDS011;24916;51.676;6.614;2023-09-12T10:07:08;13.70;;;10.50;;
39190;SDS011;24916;51.676;6.614;2023-09-12T10:09:34;11.82;;;9.98;;
39190;SDS011;24916;51.676;6.614;2023-09-12T10:11:59;11.63;;;10.13;;
39190;SDS011;24916;51.676;6.614;2023-09-12T10:14:26;12.65;;;10.68;;
39190;SDS011;24916;51.676;6.614;2023-09-12T10:16:51;13.15;;;10.82;;
39190;SDS011;24916;51.676;6.614;2023-09-12T10:19:25;15.88;;;13.15;;
39190;SDS011;24916;51.676;6.614;2023-09-12T10:24:19;17.50;;;11.97;;
39190;SDS011;24916;51.676;6.614;2023-09-12T10:26:46;15.95;;;14.40;;
39190;SDS011;24916;51.676;6.614;2023-09-12T10:29:13;66.30;;;52.38;;
39190;SDS011;24916;51.676;6.614;2023-09-12T10:31:39;19.70;;;16.48;;
39190;SDS011;24916;51.676;6.614;2023-09-12T10:34:04;16.83;;;12.40;;
39190;SDS011;24916;51.676;6.614;2023-09-12T10:36:34;14.65;;;11.77;;
39190;SDS011;24916;51.676;6.614;2023-09-12T10:39:00;17.33;;;15.63;;
39190;SDS011;24916;51.676;6.614;2023-09-12T10:41:28;12.63;;;11.25;;
39190;SDS011;24916;51.676;6.614;2023-09-12T10:43:53;12.85;;;9.60;;
39190;SDS011;24916;51.676;6.614;2023-09-12T10:46:18;12.52;;;10.85;;
39190;SDS011;24916;51.676;6.614;2023-09-12T10:48:44;13.40;;;10.85;;
39190;SDS011;24916;51.676;6.614;2023-09-12T10:51:10;13.70;;;10.77;;
39190;SDS011;24916;51.676;6.614;2023-09-12T10:53:35;10.73;;;9.57;;
39190;SDS011;24916;51.676;6.614;2023-09-12T10:58:32;12.00;;;9.02;;
39190;SDS011;24916;51.676;6.614;2023-09-12T11:01:21;10.87;;;9.10;;
39190;SDS011;24916;51.676;6.614;2023-09-12T11:03:43;8.13;;;7.35;;
39190;SDS011;24916;51.676;6.614;2023-09-12T11:06:19;9.63;;;7.13;;
39190;SDS011;24916;51.676;6.614;2023-09-12T11:08:47;10.27;;;6.75;;
39190;SDS011;24916;51.676;6.614;2023-09-12T11:11:31;7.88;;;6.97;;
39190;SDS011;24916;51.676;6.614;2023-09-12T11:14:02;12.80;;;7.23;;
39190;SDS011;24916;51.676;6.614;2023-09-12T11:16:28;8.90;;;7.55;;
39190;SDS011;24916;51.676;6.614;2023-09-12T11:19:12;11.30;;;7.70;;
39190;SDS011;24916;51.676;6.614;2023-09-12T11:21:39;8.13;;;7.32;;
39190;SDS011;24916;51.676;6.614;2023-09-12T11:24:04;8.77;;;7.20;;
39190;SDS011;24916;51.676;6.614;2023-09-12T11:26:30;6.40;;;5.07;;
39190;SDS011;24916;51.676;6.614;2023-09-12T11:28:55;7.43;;;6.07;;
39190;SDS011;24916;51.676;6.614;2023-09-12T11:31:24;9.80;;;5.28;;
39190;SDS011;24916;51.676;6.614;2023-09-12T11:33:49;7.95;;;6.10;;
39190;SDS011;24916;51.676;6.614;2023-09-12T11:36:15;12.50;;;6.90;;
39190;SDS011;24916;51.676;6.614;2023-09-12T11:38:43;16.27;;;7.97;;
39190;SDS011;24916;51.676;6.614;2023-09-12T11:41:08;9.53;;;6.33;;
39190;SDS011;24916;51.676;6.614;2023-09-12T11:43:33;11.80;;;10.57;;
39190;SDS011;24916;51.676;6.614;2023-09-12T11:46:03;15.25;;;5.78;;
39190;SDS011;24916;51.676;6.614;2023-09-12T11:48:29;6.47;;;5.80;;
39190;SDS011;24916;51.676;6.614;2023-09-12T11:50:55;8.63;;;5.70;;
39190;SDS011;24916;51.676;6.614;2023-09-12T11:53:24;7.38;;;5.75;;
39190;SDS011;24916;51.676;6.614;2023-09-12T11:55:54;8.02;;;5.70;;
39190;SDS011;24916;51.676;6.614;2023-09-12T11:58:21;5.90;;;4.90;;
39190;SDS011;24916;51.676;6.614;2023-09-12T12:00:47;8.63;;;6.70;;
39190;SDS011;24916;51.676;6.614;2023-09-12T12:03:14;9.32;;;7.25;;
39190;SDS011;24916;51.676;6.614;2023-09-12T12:05:39;8.95;;;7.88;;
39190;SDS011;24916;51.676;6.614;2023-09-12T12:08:06;9.77;;;8.75;;
39190;SDS011;24916;51.676;6.614;2023-09-12T12:10:31;9.95;;;8.57;;
39190;SDS011;24916;51.676;6.614;2023-09-12T12:12:57;10.20;;;8.13;;
39190;SDS011;24916;51.676;6.614;2023-09-12T12:15:22;8.87;;;7.87;;
39190;SDS011;24916;51.676;6.614;2023-09-12T12:17:47;14.40;;;9.23;;
39190;SDS011;24916;51.676;6.614;2023-09-12T12:20:13;8.90;;;8.07;;
39190;SDS011;24916;51.676;6.614;2023-09-12T12:22:39;10.32;;;7.90;;
39190;SDS011;24916;51.676;6.614;2023-09-12T12:25:07;8.30;;;6.82;;
39190;SDS011;24916;51.676;6.614;2023-09-12T12:27:35;8.85;;;7.30;;
39190;SDS011;24916;51.676;6.614;2023-09-12T12:30:00;10.32;;;7.47;;
39190;SDS011;24916;51.676;6.614;2023-09-12T12:32:25;10.90;;;7.05;;
39190;SDS011;24916;51.676;6.614;2023-09-12T12:34:51;7.30;;;5.88;;
39190;SDS011;24916;51.676;6.614;2023-09-12T12:37:16;6.78;;;6.07;;
39190;SDS011;24916;51.676;6.614;2023-09-12T12:39:44;7.28;;;6.55;;
39190;SDS011;24916;51.676;6.614;2023-09-12T12:42:10;7.72;;;6.05;;
39190;SDS011;24916;51.676;6.614;2023-09-12T12:44:35;9.27;;;6.27;;
39190;SDS011;24916;51.676;6.614;2023-09-12T12:47:03;6.15;;;5.22;;
39190;SDS011;24916;51.676;6.614;2023-09-12T12:49:29;7.03;;;6.32;;
39190;SDS011;24916;51.676;6.614;2023-09-12T12:52:00;13.27;;;6.00;;
39190;SDS011;24916;51.676;6.614;2023-09-12T12:54:30;5.10;;;3.78;;
39190;SDS011;24916;51.676;6.614;2023-09-12T12:56:56;4.57;;;3.65;;
39190;SDS011;24916;51.676;6.614;2023-09-12T12:59:22;7.35;;;4.00;;
39190;SDS011;24916;51.676;6.614;2023-09-12T13:01:47;7.43;;;4.88;;
39190;SDS011;24916;51.676;6.614;2023-09-12T13:04:12;8.70;;;6.47;;
39190;SDS011;24916;51.676;6.614;2023-09-12T13:06:37;4.47;;;3.80;;
39190;SDS011;24916;51.676;6.614;2023-09-12T13:09:03;6.60;;;4.75;;
39190;SDS011;24916;51.676;6.614;2023-09-12T13:11:32;6.57;;;4.43;;
39190;SDS011;24916;51.676;6.614;2023-09-12T13:14:01;7.25;;;5.47;;
39190;SDS011;24916;51.676;6.614;2023-09-12T13:16:26;6.35;;;3.90;;
39190;SDS011;24916;51.676;6.614;2023-09-12T13:18:52;5.32;;;3.75;;
39190;SDS011;24916;51.676;6.614;2023-09-12T13:21:17;5.60;;;4.17;;
39190;SDS011;24916;51.676;6.614;2023-09-12T13:23:42;7.05;;;3.75;;
39190;SDS011;24916;51.676;6.614;2023-09-12T13:26:08;6.43;;;5.17;;
39190;SDS011;24916;51.676;6.614;2023-09-12T13:28:33;7.38;;;4.22;;
39190;SDS011;24916;51.676;6.614;2023-09-12T13:30:58;4.70;;;4.20;;
39190;SDS011;24916;51.676;6.614;2023-09-12T13:33:24;5.90;;;4.83;;
39190;SDS011;24916;51.676;6.614;2023-09-12T13:35:49;6.68;;;4.63;;
39190;SDS011;24916;51.676;6.614;2023-09-12T13:38:15;6.13;;;4.00;;
39190;SDS011;24916;51.676;6.614;2023-09-12T13:40:42;7.80;;;3.65;;
39190;SDS011;24916;51.676;6.614;2023-09-12T13:43:07;4.22;;;3.80;;
39190;SDS011;24916;51.676;6.614;2023-09-12T13:45:32;4.35;;;3.33;;
39190;SDS011;24916;51.676;6.614;2023-09-12T13:47:58;5.35;;;3.70;;
39190;SDS011;24916;51.676;6.614;2023-09-12T13:50:24;9.07;;;3.92;;
39190;SDS011;24916;51.676;6.614;2023-09-12T13:52:49;5.38;;;4.10;;
39190;SDS011;24916;51.676;6.614;2023-09-12T13:55:14;5.97;;;3.70;;
39190;SDS011;24916;51.676;6.614;2023-09-12T13:57:41;4.00;;;3.28;;
39190;SDS011;24916;51.676;6.614;2023-09-12T14:00:06;5.10;;;3.47;;
39190;SDS011;24916;51.676;6.614;2023-09-12T14:02:32;6.00;;;3.28;;
39190;SDS011;24916;51.676;6.614;2023-09-12T14:04:57;7.28;;;4.05;;
39190;SDS011;24916;51.676;6.614;2023-09-12T14:07:22;4.18;;;3.13;;
39190;SDS011;24916;51.676;6.614;2023-09-12T14:09:47;9.07;;;4.30;;
39190;SDS011;24916;51.676;6.614;2023-09-12T14:12:14;5.55;;;3.30;;
39190;SDS011;24916;51.676;6.614;2023-09-12T14:14:39;3.88;;;2.83;;
39190;SDS011;24916;51.676;6.614;2023-09-12T14:17:05;8.20;;;3.00;;
39190;SDS011;24916;51.676;6.614;2023-09-12T14:19:30;4.33;;;2.80;;
39190;SDS011;24916;51.676;6.614;2023-09-12T14:21:56;4.32;;;3.10;;
39190;SDS011;24916;51.676;6.614;2023-09-12T14:24:21;8.27;;;3.80;;
39190;SDS011;24916;51.676;6.614;2023-09-12T14:26:46;7.70;;;3.70;;
39190;SDS011;24916;51.676;6.614;2023-09-12T14:29:12;4.97;;;3.85;;
39190;SDS011;24916;51.676;6.614;2023-09-12T14:31:37;5.83;;;3.37;;
39190;SDS011;24916;51.676;6.614;2023-09-12T14:34:03;4.45;;;3.35;;